sensor_id;sensor_type;location;lat;lon;timestamp;P1;durP1;ratioP1;P2;durP2;ratioP2
8626;SDS011;4351;51.422;6.794;2023-04-25T00:02:26;10.37;;;4.33;;
8626;SDS011;4351;51.422;6.794;2023-04-25T00:04:54;12.10;;;4.00;;
8626;SDS011;4351;51.422;6.794;2023-04-25T00:07:26;11.17;;;4.03;;
8626;SDS011;4351;51.422;6.794;2023-04-25T00:09:54;13.93;;;3.97;;
8626;SDS011;4351;51.422;6.794;2023-04-25T00:12:21;8.47;;;3.70;;
8626;SDS011;4351;51.422;6.794;2023-04-25T00:14:50;14.07;;;4.00;;
8626;SDS011;4351;51.422;6.794;2023-04-25T00:17:19;9.97;;;3.93;;
8626;SDS011;4351;51.422;6.794;2023-04-25T00:19:48;8.53;;;3.87;;
8626;SDS011;4351;51.422;6.794;2023-04-25T00:22:16;12.17;;;3.77;;
8626;SDS011;4351;51.422;6.794;2023-04-25T00:24:45;10.37;;;4.23;;
8626;SDS011;4351;51.422;6.794;2023-04-25T00:27:13;7.83;;;4.00;;
8626;SDS011;4351;51.422;6.794;2023-04-25T00:29:41;11.17;;;4.10;;
8626;SDS011;4351;51.422;6.794;2023-04-25T00:32:09;11.47;;;4.30;;
8626;SDS011;4351;51.422;6.794;2023-04-25T00:34:37;12.17;;;4.40;;
8626;SDS011;4351;51.422;6.794;2023-04-25T00:37:04;13.07;;;4.43;;
8626;SDS011;4351;51.422;6.794;2023-04-25T00:39:32;9.87;;;4.47;;
8626;SDS011;4351;51.422;6.794;2023-04-25T00:42:02;12.63;;;4.40;;
8626;SDS011;4351;51.422;6.794;2023-04-25T00:44:30;11.63;;;4.37;;
8626;SDS011;4351;51.422;6.794;2023-04-25T00:46:59;13.00;;;4.30;;
8626;SDS011;4351;51.422;6.794;2023-04-25T00:49:29;10.27;;;4.20;;
8626;SDS011;4351;51.422;6.794;2023-04-25T00:51:57;9.50;;;4.20;;
8626;SDS011;4351;51.422;6.794;2023-04-25T00:54:25;8.37;;;4.30;;
8626;SDS011;4351;51.422;6.794;2023-04-25T00:56:53;11.43;;;4.17;;
8626;SDS011;4351;51.422;6.794;2023-04-25T00:59:22;13.73;;;4.83;;
8626;SDS011;4351;51.422;6.794;2023-04-25T01:01:51;11.93;;;4.13;;
8626;SDS011;4351;51.422;6.794;2023-04-25T01:04:19;13.50;;;4.53;;
8626;SDS011;4351;51.422;6.794;2023-04-25T01:06:47;10.07;;;4.17;;
8626;SDS011;4351;51.422;6.794;2023-04-25T01:09:16;11.57;;;4.53;;
8626;SDS011;4351;51.422;6.794;2023-04-25T01:11:44;11.20;;;4.80;;
8626;SDS011;4351;51.422;6.794;2023-04-25T01:14:11;15.73;;;5.20;;
8626;SDS011;4351;51.422;6.794;2023-04-25T01:16:41;9.17;;;4.30;;
8626;SDS011;4351;51.422;6.794;2023-04-25T01:19:09;9.50;;;4.33;;
8626;SDS011;4351;51.422;6.794;2023-04-25T01:21:40;10.50;;;4.63;;
8626;SDS011;4351;51.422;6.794;2023-04-25T01:24:08;12.27;;;4.27;;
8626;SDS011;4351;51.422;6.794;2023-04-25T01:26:36;11.40;;;4.60;;
8626;SDS011;4351;51.422;6.794;2023-04-25T01:29:06;10.13;;;4.80;;
8626;SDS011;4351;51.422;6.794;2023-04-25T01:31:35;15.63;;;4.33;;
8626;SDS011;4351;51.422;6.794;2023-04-25T01:34:04;13.90;;;5.60;;
8626;SDS011;4351;51.422;6.794;2023-04-25T01:36:32;13.03;;;5.23;;
8626;SDS011;4351;51.422;6.794;2023-04-25T01:39:02;11.80;;;4.70;;
8626;SDS011;4351;51.422;6.794;2023-04-25T01:41:30;11.77;;;4.23;;
8626;SDS011;4351;51.422;6.794;2023-04-25T01:43:58;12.23;;;5.10;;
8626;SDS011;4351;51.422;6.794;2023-04-25T01:46:26;12.37;;;4.97;;
8626;SDS011;4351;51.422;6.794;2023-04-25T01:48:55;14.00;;;5.23;;
8626;SDS011;4351;51.422;6.794;2023-04-25T01:51:23;11.37;;;5.33;;
8626;SDS011;4351;51.422;6.794;2023-04-25T01:53:50;10.17;;;5.07;;
8626;SDS011;4351;51.422;6.794;2023-04-25T01:56:21;11.07;;;4.60;;
8626;SDS011;4351;51.422;6.794;2023-04-25T01:58:48;10.60;;;4.63;;
8626;SDS011;4351;51.422;6.794;2023-04-25T02:01:19;13.60;;;5.27;;
8626;SDS011;4351;51.422;6.794;2023-04-25T02:04:04;12.40;;;5.13;;
8626;SDS011;4351;51.422;6.794;2023-04-25T02:06:35;10.20;;;4.80;;
8626;SDS011;4351;51.422;6.794;2023-04-25T02:09:03;7.97;;;4.87;;
8626;SDS011;4351;51.422;6.794;2023-04-25T02:11:32;11.10;;;5.13;;
8626;SDS011;4351;51.422;6.794;2023-04-25T02:14:26;11.27;;;5.23;;
8626;SDS011;4351;51.422;6.794;2023-04-25T02:17:05;10.27;;;4.87;;
8626;SDS011;4351;51.422;6.794;2023-04-25T02:19:33;12.60;;;4.80;;
8626;SDS011;4351;51.422;6.794;2023-04-25T02:22:01;11.63;;;4.83;;
8626;SDS011;4351;51.422;6.794;2023-04-25T02:24:29;11.77;;;4.87;;
8626;SDS011;4351;51.422;6.794;2023-04-25T02:26:59;8.97;;;4.50;;
8626;SDS011;4351;51.422;6.794;2023-04-25T02:29:29;10.57;;;5.10;;
8626;SDS011;4351;51.422;6.794;2023-04-25T02:31:56;13.60;;;4.70;;
8626;SDS011;4351;51.422;6.794;2023-04-25T02:34:25;14.33;;;4.70;;
8626;SDS011;4351;51.422;6.794;2023-04-25T02:36:53;10.17;;;4.97;;
8626;SDS011;4351;51.422;6.794;2023-04-25T02:39:21;11.07;;;4.80;;
8626;SDS011;4351;51.422;6.794;2023-04-25T02:41:51;18.83;;;4.53;;
8626;SDS011;4351;51.422;6.794;2023-04-25T02:44:22;9.37;;;4.13;;
8626;SDS011;4351;51.422;6.794;2023-04-25T02:46:49;11.53;;;4.20;;
8626;SDS011;4351;51.422;6.794;2023-04-25T02:49:17;14.00;;;4.53;;
8626;SDS011;4351;51.422;6.794;2023-04-25T02:51:45;12.07;;;4.57;;
8626;SDS011;4351;51.422;6.794;2023-04-25T02:54:13;13.77;;;4.47;;
8626;SDS011;4351;51.422;6.794;2023-04-25T02:56:45;15.43;;;4.20;;
8626;SDS011;4351;51.422;6.794;2023-04-25T02:59:19;10.13;;;4.13;;
8626;SDS011;4351;51.422;6.794;2023-04-25T03:01:48;17.37;;;4.70;;
8626;SDS011;4351;51.422;6.794;2023-04-25T03:04:16;9.63;;;3.97;;
8626;SDS011;4351;51.422;6.794;2023-04-25T03:06:46;13.50;;;4.77;;
8626;SDS011;4351;51.422;6.794;2023-04-25T03:09:14;13.70;;;4.20;;
8626;SDS011;4351;51.422;6.794;2023-04-25T03:11:43;8.83;;;4.20;;
8626;SDS011;4351;51.422;6.794;2023-04-25T03:14:12;13.47;;;4.40;;
8626;SDS011;4351;51.422;6.794;2023-04-25T03:16:40;14.93;;;4.40;;
8626;SDS011;4351;51.422;6.794;2023-04-25T03:19:09;9.73;;;4.20;;
8626;SDS011;4351;51.422;6.794;2023-04-25T03:21:37;11.90;;;4.13;;
8626;SDS011;4351;51.422;6.794;2023-04-25T03:24:05;11.67;;;4.03;;
8626;SDS011;4351;51.422;6.794;2023-04-25T03:26:33;14.87;;;4.93;;
8626;SDS011;4351;51.422;6.794;2023-04-25T03:29:01;16.77;;;5.20;;
8626;SDS011;4351;51.422;6.794;2023-04-25T03:31:29;19.53;;;4.70;;
8626;SDS011;4351;51.422;6.794;2023-04-25T03:33:58;16.17;;;5.53;;
8626;SDS011;4351;51.422;6.794;2023-04-25T03:36:27;10.67;;;4.67;;
8626;SDS011;4351;51.422;6.794;2023-04-25T03:38:55;18.00;;;4.87;;
8626;SDS011;4351;51.422;6.794;2023-04-25T03:41:23;12.13;;;4.77;;
8626;SDS011;4351;51.422;6.794;2023-04-25T03:43:56;14.20;;;4.77;;
8626;SDS011;4351;51.422;6.794;2023-04-25T03:46:26;14.63;;;4.97;;
8626;SDS011;4351;51.422;6.794;2023-04-25T03:48:53;17.63;;;5.10;;
8626;SDS011;4351;51.422;6.794;2023-04-25T03:51:29;15.87;;;5.23;;
8626;SDS011;4351;51.422;6.794;2023-04-25T03:53:57;13.97;;;4.80;;
8626;SDS011;4351;51.422;6.794;2023-04-25T03:56:54;13.43;;;4.30;;
8626;SDS011;4351;51.422;6.794;2023-04-25T03:59:26;12.33;;;4.60;;
8626;SDS011;4351;51.422;6.794;2023-04-25T04:01:54;13.37;;;4.53;;
8626;SDS011;4351;51.422;6.794;2023-04-25T04:04:22;11.90;;;4.70;;
8626;SDS011;4351;51.422;6.794;2023-04-25T04:06:52;12.63;;;4.13;;
8626;SDS011;4351;51.422;6.794;2023-04-25T04:09:24;14.60;;;5.10;;
8626;SDS011;4351;51.422;6.794;2023-04-25T04:11:55;16.17;;;4.90;;
8626;SDS011;4351;51.422;6.794;2023-04-25T04:14:23;16.27;;;4.90;;
8626;SDS011;4351;51.422;6.794;2023-04-25T04:16:50;13.30;;;5.10;;
8626;SDS011;4351;51.422;6.794;2023-04-25T04:19:18;14.33;;;4.73;;
8626;SDS011;4351;51.422;6.794;2023-04-25T04:21:55;12.87;;;4.77;;
8626;SDS011;4351;51.422;6.794;2023-04-25T04:24:24;13.77;;;4.70;;
8626;SDS011;4351;51.422;6.794;2023-04-25T04:26:59;19.03;;;5.10;;
8626;SDS011;4351;51.422;6.794;2023-04-25T04:29:36;16.27;;;5.23;;
8626;SDS011;4351;51.422;6.794;2023-04-25T04:32:11;16.60;;;5.23;;
8626;SDS011;4351;51.422;6.794;2023-04-25T04:34:40;13.90;;;5.10;;
8626;SDS011;4351;51.422;6.794;2023-04-25T04:37:12;17.37;;;4.63;;
8626;SDS011;4351;51.422;6.794;2023-04-25T04:39:42;14.33;;;4.90;;
8626;SDS011;4351;51.422;6.794;2023-04-25T04:42:30;12.00;;;4.50;;
8626;SDS011;4351;51.422;6.794;2023-04-25T04:45:27;17.27;;;5.10;;
8626;SDS011;4351;51.422;6.794;2023-04-25T04:48:20;15.83;;;5.30;;
8626;SDS011;4351;51.422;6.794;2023-04-25T04:51:20;18.50;;;4.90;;
8626;SDS011;4351;51.422;6.794;2023-04-25T04:54:02;15.47;;;5.13;;
8626;SDS011;4351;51.422;6.794;2023-04-25T04:56:53;15.40;;;5.27;;
8626;SDS011;4351;51.422;6.794;2023-04-25T04:59:38;18.50;;;5.50;;
8626;SDS011;4351;51.422;6.794;2023-04-25T05:02:25;12.90;;;4.70;;
8626;SDS011;4351;51.422;6.794;2023-04-25T05:05:14;19.73;;;4.80;;
8626;SDS011;4351;51.422;6.794;2023-04-25T05:07:58;17.00;;;5.63;;
8626;SDS011;4351;51.422;6.794;2023-04-25T05:10:40;21.10;;;5.60;;
8626;SDS011;4351;51.422;6.794;2023-04-25T05:13:31;20.13;;;5.50;;
8626;SDS011;4351;51.422;6.794;2023-04-25T05:16:12;18.23;;;5.30;;
8626;SDS011;4351;51.422;6.794;2023-04-25T05:19:06;15.40;;;5.97;;
8626;SDS011;4351;51.422;6.794;2023-04-25T05:22:03;14.93;;;5.07;;
8626;SDS011;4351;51.422;6.794;2023-04-25T05:24:50;12.30;;;5.27;;
8626;SDS011;4351;51.422;6.794;2023-04-25T05:27:37;13.80;;;5.27;;
8626;SDS011;4351;51.422;6.794;2023-04-25T05:30:24;18.60;;;5.30;;
8626;SDS011;4351;51.422;6.794;2023-04-25T05:33:02;16.73;;;5.20;;
8626;SDS011;4351;51.422;6.794;2023-04-25T05:35:30;14.50;;;5.37;;
8626;SDS011;4351;51.422;6.794;2023-04-25T05:37:59;14.43;;;5.27;;
8626;SDS011;4351;51.422;6.794;2023-04-25T05:40:47;17.63;;;5.10;;
8626;SDS011;4351;51.422;6.794;2023-04-25T05:43:33;18.50;;;5.60;;
8626;SDS011;4351;51.422;6.794;2023-04-25T05:46:19;12.23;;;4.83;;
8626;SDS011;4351;51.422;6.794;2023-04-25T05:49:01;12.07;;;5.50;;
8626;SDS011;4351;51.422;6.794;2023-04-25T05:51:52;14.63;;;5.30;;
8626;SDS011;4351;51.422;6.794;2023-04-25T05:54:36;17.10;;;5.67;;
8626;SDS011;4351;51.422;6.794;2023-04-25T05:57:04;13.80;;;5.43;;
8626;SDS011;4351;51.422;6.794;2023-04-25T05:59:34;14.43;;;4.63;;
8626;SDS011;4351;51.422;6.794;2023-04-25T06:02:02;20.53;;;5.90;;
8626;SDS011;4351;51.422;6.794;2023-04-25T06:04:32;12.70;;;4.53;;
8626;SDS011;4351;51.422;6.794;2023-04-25T06:07:01;14.33;;;4.97;;
8626;SDS011;4351;51.422;6.794;2023-04-25T06:09:29;13.80;;;5.03;;
8626;SDS011;4351;51.422;6.794;2023-04-25T06:11:57;18.10;;;5.43;;
8626;SDS011;4351;51.422;6.794;2023-04-25T06:14:25;16.93;;;5.50;;
8626;SDS011;4351;51.422;6.794;2023-04-25T06:16:56;12.10;;;4.57;;
8626;SDS011;4351;51.422;6.794;2023-04-25T06:19:25;12.17;;;4.80;;
8626;SDS011;4351;51.422;6.794;2023-04-25T06:21:54;13.60;;;4.63;;
8626;SDS011;4351;51.422;6.794;2023-04-25T06:24:21;14.97;;;4.80;;
8626;SDS011;4351;51.422;6.794;2023-04-25T06:26:50;13.63;;;4.83;;
8626;SDS011;4351;51.422;6.794;2023-04-25T06:29:18;16.63;;;5.07;;
8626;SDS011;4351;51.422;6.794;2023-04-25T06:31:46;16.83;;;4.97;;
8626;SDS011;4351;51.422;6.794;2023-04-25T06:34:15;19.67;;;4.77;;
8626;SDS011;4351;51.422;6.794;2023-04-25T06:36:43;17.47;;;5.37;;
8626;SDS011;4351;51.422;6.794;2023-04-25T06:39:14;20.23;;;6.20;;
8626;SDS011;4351;51.422;6.794;2023-04-25T06:41:42;21.70;;;5.90;;
8626;SDS011;4351;51.422;6.794;2023-04-25T06:44:30;15.77;;;5.60;;
8626;SDS011;4351;51.422;6.794;2023-04-25T06:46:58;18.50;;;5.57;;
8626;SDS011;4351;51.422;6.794;2023-04-25T06:49:28;16.93;;;4.77;;
8626;SDS011;4351;51.422;6.794;2023-04-25T06:51:57;14.00;;;5.20;;
8626;SDS011;4351;51.422;6.794;2023-04-25T06:54:25;18.27;;;4.30;;
8626;SDS011;4351;51.422;6.794;2023-04-25T06:57:00;12.20;;;3.57;;
8626;SDS011;4351;51.422;6.794;2023-04-25T06:59:28;13.43;;;3.60;;
8626;SDS011;4351;51.422;6.794;2023-04-25T07:01:56;10.20;;;3.20;;
8626;SDS011;4351;51.422;6.794;2023-04-25T07:04:25;21.47;;;3.90;;
8626;SDS011;4351;51.422;6.794;2023-04-25T07:06:57;13.43;;;3.83;;
8626;SDS011;4351;51.422;6.794;2023-04-25T07:09:37;14.43;;;3.93;;
8626;SDS011;4351;51.422;6.794;2023-04-25T07:12:05;12.30;;;3.73;;
8626;SDS011;4351;51.422;6.794;2023-04-25T07:14:34;14.83;;;4.40;;
8626;SDS011;4351;51.422;6.794;2023-04-25T07:17:02;11.90;;;4.33;;
8626;SDS011;4351;51.422;6.794;2023-04-25T07:19:33;11.80;;;3.80;;
8626;SDS011;4351;51.422;6.794;2023-04-25T07:22:06;18.87;;;4.53;;
8626;SDS011;4351;51.422;6.794;2023-04-25T07:24:36;16.47;;;5.33;;
8626;SDS011;4351;51.422;6.794;2023-04-25T07:27:05;18.90;;;5.30;;
8626;SDS011;4351;51.422;6.794;2023-04-25T07:29:45;16.60;;;5.20;;
8626;SDS011;4351;51.422;6.794;2023-04-25T07:32:13;18.10;;;5.13;;
8626;SDS011;4351;51.422;6.794;2023-04-25T07:34:41;15.70;;;6.20;;
8626;SDS011;4351;51.422;6.794;2023-04-25T07:37:11;15.80;;;5.60;;
8626;SDS011;4351;51.422;6.794;2023-04-25T07:39:55;19.83;;;6.17;;
8626;SDS011;4351;51.422;6.794;2023-04-25T07:42:22;15.97;;;5.50;;
8626;SDS011;4351;51.422;6.794;2023-04-25T07:44:51;17.30;;;4.87;;
8626;SDS011;4351;51.422;6.794;2023-04-25T07:47:18;15.27;;;5.43;;
8626;SDS011;4351;51.422;6.794;2023-04-25T07:49:46;19.70;;;4.80;;
8626;SDS011;4351;51.422;6.794;2023-04-25T07:52:16;15.93;;;5.67;;
8626;SDS011;4351;51.422;6.794;2023-04-25T07:54:50;22.40;;;5.90;;
8626;SDS011;4351;51.422;6.794;2023-04-25T07:57:24;11.83;;;5.10;;
8626;SDS011;4351;51.422;6.794;2023-04-25T07:59:53;16.13;;;4.70;;
8626;SDS011;4351;51.422;6.794;2023-04-25T08:02:21;21.17;;;6.23;;
8626;SDS011;4351;51.422;6.794;2023-04-25T08:04:49;14.57;;;5.03;;
8626;SDS011;4351;51.422;6.794;2023-04-25T08:07:20;17.97;;;5.10;;
8626;SDS011;4351;51.422;6.794;2023-04-25T08:09:51;17.60;;;5.80;;
8626;SDS011;4351;51.422;6.794;2023-04-25T08:12:28;14.27;;;5.00;;
8626;SDS011;4351;51.422;6.794;2023-04-25T08:14:57;16.30;;;5.30;;
8626;SDS011;4351;51.422;6.794;2023-04-25T08:17:29;11.23;;;4.83;;
8626;SDS011;4351;51.422;6.794;2023-04-25T08:19:58;11.33;;;4.33;;
8626;SDS011;4351;51.422;6.794;2023-04-25T08:22:30;15.20;;;4.80;;
8626;SDS011;4351;51.422;6.794;2023-04-25T08:25:18;11.47;;;4.03;;
8626;SDS011;4351;51.422;6.794;2023-04-25T08:27:46;13.67;;;4.17;;
8626;SDS011;4351;51.422;6.794;2023-04-25T08:30:16;10.93;;;3.60;;
8626;SDS011;4351;51.422;6.794;2023-04-25T08:32:45;12.93;;;5.00;;
8626;SDS011;4351;51.422;6.794;2023-04-25T08:35:35;18.10;;;4.37;;
8626;SDS011;4351;51.422;6.794;2023-04-25T08:38:04;16.00;;;4.60;;
8626;SDS011;4351;51.422;6.794;2023-04-25T08:40:34;13.03;;;4.40;;
8626;SDS011;4351;51.422;6.794;2023-04-25T08:43:15;12.17;;;3.47;;
8626;SDS011;4351;51.422;6.794;2023-04-25T08:45:46;10.40;;;3.83;;
8626;SDS011;4351;51.422;6.794;2023-04-25T08:48:29;11.37;;;2.73;;
8626;SDS011;4351;51.422;6.794;2023-04-25T08:51:03;9.63;;;2.20;;
8626;SDS011;4351;51.422;6.794;2023-04-25T08:53:37;9.43;;;2.73;;
8626;SDS011;4351;51.422;6.794;2023-04-25T08:56:09;6.73;;;2.53;;
8626;SDS011;4351;51.422;6.794;2023-04-25T08:58:39;7.63;;;2.37;;
8626;SDS011;4351;51.422;6.794;2023-04-25T09:01:08;6.87;;;1.80;;
8626;SDS011;4351;51.422;6.794;2023-04-25T09:03:44;4.93;;;1.70;;
8626;SDS011;4351;51.422;6.794;2023-04-25T09:06:13;11.57;;;2.57;;
8626;SDS011;4351;51.422;6.794;2023-04-25T09:08:44;8.50;;;2.07;;
8626;SDS011;4351;51.422;6.794;2023-04-25T09:11:12;7.17;;;1.93;;
8626;SDS011;4351;51.422;6.794;2023-04-25T09:13:41;10.67;;;2.30;;
8626;SDS011;4351;51.422;6.794;2023-04-25T09:16:21;7.80;;;2.40;;
8626;SDS011;4351;51.422;6.794;2023-04-25T09:19:10;7.63;;;2.30;;
8626;SDS011;4351;51.422;6.794;2023-04-25T09:22:10;6.83;;;2.33;;
8626;SDS011;4351;51.422;6.794;2023-04-25T09:24:40;7.67;;;2.77;;
8626;SDS011;4351;51.422;6.794;2023-04-25T09:27:13;8.63;;;2.23;;
8626;SDS011;4351;51.422;6.794;2023-04-25T09:29:49;7.27;;;2.80;;
8626;SDS011;4351;51.422;6.794;2023-04-25T09:32:25;11.90;;;2.57;;
8626;SDS011;4351;51.422;6.794;2023-04-25T09:34:56;9.27;;;1.90;;
8626;SDS011;4351;51.422;6.794;2023-04-25T09:37:28;6.60;;;1.70;;
8626;SDS011;4351;51.422;6.794;2023-04-25T09:40:17;9.57;;;1.80;;
8626;SDS011;4351;51.422;6.794;2023-04-25T09:43:00;6.37;;;1.70;;
8626;SDS011;4351;51.422;6.794;2023-04-25T09:45:29;7.00;;;2.00;;
8626;SDS011;4351;51.422;6.794;2023-04-25T09:47:59;11.20;;;2.00;;
8626;SDS011;4351;51.422;6.794;2023-04-25T09:50:31;7.03;;;1.67;;
8626;SDS011;4351;51.422;6.794;2023-04-25T09:53:06;6.97;;;1.90;;
8626;SDS011;4351;51.422;6.794;2023-04-25T09:55:56;8.03;;;2.00;;
8626;SDS011;4351;51.422;6.794;2023-04-25T09:58:25;6.80;;;1.90;;
8626;SDS011;4351;51.422;6.794;2023-04-25T10:01:00;4.83;;;1.70;;
8626;SDS011;4351;51.422;6.794;2023-04-25T10:03:39;6.67;;;1.80;;
8626;SDS011;4351;51.422;6.794;2023-04-25T10:06:31;7.67;;;1.60;;
8626;SDS011;4351;51.422;6.794;2023-04-25T10:09:02;6.00;;;1.57;;
8626;SDS011;4351;51.422;6.794;2023-04-25T10:11:31;5.80;;;1.60;;
8626;SDS011;4351;51.422;6.794;2023-04-25T10:13:59;4.43;;;1.53;;
8626;SDS011;4351;51.422;6.794;2023-04-25T10:16:27;6.53;;;1.63;;
8626;SDS011;4351;51.422;6.794;2023-04-25T10:18:56;8.87;;;3.30;;
8626;SDS011;4351;51.422;6.794;2023-04-25T10:21:25;5.53;;;1.80;;
8626;SDS011;4351;51.422;6.794;2023-04-25T10:23:56;6.30;;;1.57;;
8626;SDS011;4351;51.422;6.794;2023-04-25T10:26:25;8.93;;;1.80;;
8626;SDS011;4351;51.422;6.794;2023-04-25T10:28:58;4.97;;;1.87;;
8626;SDS011;4351;51.422;6.794;2023-04-25T10:31:27;4.03;;;1.70;;
8626;SDS011;4351;51.422;6.794;2023-04-25T10:33:57;5.30;;;1.87;;
8626;SDS011;4351;51.422;6.794;2023-04-25T10:36:26;4.97;;;1.50;;
8626;SDS011;4351;51.422;6.794;2023-04-25T10:39:02;3.20;;;1.23;;
8626;SDS011;4351;51.422;6.794;2023-04-25T10:41:44;7.00;;;1.47;;
8626;SDS011;4351;51.422;6.794;2023-04-25T10:44:15;5.30;;;1.43;;
8626;SDS011;4351;51.422;6.794;2023-04-25T10:46:44;3.43;;;1.43;;
8626;SDS011;4351;51.422;6.794;2023-04-25T10:49:27;5.23;;;1.50;;
8626;SDS011;4351;51.422;6.794;2023-04-25T10:52:15;5.27;;;1.50;;
8626;SDS011;4351;51.422;6.794;2023-04-25T10:54:48;6.10;;;1.63;;
8626;SDS011;4351;51.422;6.794;2023-04-25T10:57:31;7.90;;;1.83;;
8626;SDS011;4351;51.422;6.794;2023-04-25T11:00:09;4.80;;;1.53;;
8626;SDS011;4351;51.422;6.794;2023-04-25T11:02:43;5.47;;;1.30;;
8626;SDS011;4351;51.422;6.794;2023-04-25T11:05:20;3.90;;;1.30;;
8626;SDS011;4351;51.422;6.794;2023-04-25T11:07:51;5.20;;;1.70;;
8626;SDS011;4351;51.422;6.794;2023-04-25T11:10:40;5.70;;;1.60;;
8626;SDS011;4351;51.422;6.794;2023-04-25T11:13:08;7.90;;;1.70;;
8626;SDS011;4351;51.422;6.794;2023-04-25T11:15:38;8.63;;;1.73;;
8626;SDS011;4351;51.422;6.794;2023-04-25T11:18:06;5.67;;;1.47;;
8626;SDS011;4351;51.422;6.794;2023-04-25T11:20:34;4.87;;;1.50;;
8626;SDS011;4351;51.422;6.794;2023-04-25T11:23:02;7.20;;;1.77;;
8626;SDS011;4351;51.422;6.794;2023-04-25T11:25:30;5.93;;;1.73;;
8626;SDS011;4351;51.422;6.794;2023-04-25T11:28:00;9.07;;;1.70;;
8626;SDS011;4351;51.422;6.794;2023-04-25T11:30:29;7.03;;;2.07;;
8626;SDS011;4351;51.422;6.794;2023-04-25T11:32:59;5.03;;;1.50;;
8626;SDS011;4351;51.422;6.794;2023-04-25T11:35:29;7.17;;;1.37;;
8626;SDS011;4351;51.422;6.794;2023-04-25T11:37:57;7.60;;;1.80;;
8626;SDS011;4351;51.422;6.794;2023-04-25T11:40:25;8.40;;;2.70;;
8626;SDS011;4351;51.422;6.794;2023-04-25T11:42:52;11.60;;;2.57;;
8626;SDS011;4351;51.422;6.794;2023-04-25T11:45:20;7.37;;;2.40;;
8626;SDS011;4351;51.422;6.794;2023-04-25T11:47:50;5.83;;;2.20;;
8626;SDS011;4351;51.422;6.794;2023-04-25T11:50:20;6.87;;;2.67;;
8626;SDS011;4351;51.422;6.794;2023-04-25T11:52:48;6.73;;;2.27;;
8626;SDS011;4351;51.422;6.794;2023-04-25T11:55:18;5.27;;;1.80;;
8626;SDS011;4351;51.422;6.794;2023-04-25T11:57:48;7.23;;;2.13;;
8626;SDS011;4351;51.422;6.794;2023-04-25T12:00:17;7.93;;;2.43;;
8626;SDS011;4351;51.422;6.794;2023-04-25T12:02:47;7.70;;;2.37;;
8626;SDS011;4351;51.422;6.794;2023-04-25T12:05:18;10.67;;;2.67;;
8626;SDS011;4351;51.422;6.794;2023-04-25T12:07:53;4.77;;;1.83;;
8626;SDS011;4351;51.422;6.794;2023-04-25T12:10:21;8.07;;;2.43;;
8626;SDS011;4351;51.422;6.794;2023-04-25T12:12:51;9.13;;;1.83;;
8626;SDS011;4351;51.422;6.794;2023-04-25T12:15:23;7.13;;;2.07;;
8626;SDS011;4351;51.422;6.794;2023-04-25T12:17:53;7.33;;;2.10;;
8626;SDS011;4351;51.422;6.794;2023-04-25T12:20:23;6.17;;;1.97;;
8626;SDS011;4351;51.422;6.794;2023-04-25T12:22:52;10.73;;;2.63;;
8626;SDS011;4351;51.422;6.794;2023-04-25T12:25:33;6.57;;;2.77;;
8626;SDS011;4351;51.422;6.794;2023-04-25T12:28:11;12.23;;;2.90;;
8626;SDS011;4351;51.422;6.794;2023-04-25T12:30:53;10.03;;;2.53;;
8626;SDS011;4351;51.422;6.794;2023-04-25T12:33:24;7.10;;;2.40;;
8626;SDS011;4351;51.422;6.794;2023-04-25T12:35:53;9.10;;;2.10;;
8626;SDS011;4351;51.422;6.794;2023-04-25T12:38:23;4.90;;;1.80;;
8626;SDS011;4351;51.422;6.794;2023-04-25T12:40:52;8.07;;;2.10;;
8626;SDS011;4351;51.422;6.794;2023-04-25T12:43:20;3.50;;;1.70;;
8626;SDS011;4351;51.422;6.794;2023-04-25T12:45:49;4.27;;;1.57;;
8626;SDS011;4351;51.422;6.794;2023-04-25T12:48:17;5.60;;;2.50;;
8626;SDS011;4351;51.422;6.794;2023-04-25T12:50:46;6.93;;;2.20;;
8626;SDS011;4351;51.422;6.794;2023-04-25T12:53:16;5.97;;;2.17;;
8626;SDS011;4351;51.422;6.794;2023-04-25T12:55:44;9.97;;;2.50;;
8626;SDS011;4351;51.422;6.794;2023-04-25T12:58:13;7.27;;;2.90;;
8626;SDS011;4351;51.422;6.794;2023-04-25T13:00:41;7.97;;;2.67;;
8626;SDS011;4351;51.422;6.794;2023-04-25T13:03:09;9.50;;;2.17;;
8626;SDS011;4351;51.422;6.794;2023-04-25T13:05:39;6.00;;;2.27;;
8626;SDS011;4351;51.422;6.794;2023-04-25T13:08:07;7.83;;;2.10;;
8626;SDS011;4351;51.422;6.794;2023-04-25T13:10:37;7.43;;;1.90;;
8626;SDS011;4351;51.422;6.794;2023-04-25T13:13:05;7.03;;;2.03;;
8626;SDS011;4351;51.422;6.794;2023-04-25T13:15:33;6.93;;;1.70;;
8626;SDS011;4351;51.422;6.794;2023-04-25T13:18:02;7.33;;;1.50;;
8626;SDS011;4351;51.422;6.794;2023-04-25T13:20:30;5.47;;;1.50;;
8626;SDS011;4351;51.422;6.794;2023-04-25T13:22:58;7.30;;;1.83;;
8626;SDS011;4351;51.422;6.794;2023-04-25T13:25:28;7.93;;;1.67;;
8626;SDS011;4351;51.422;6.794;2023-04-25T13:27:57;7.20;;;1.90;;
8626;SDS011;4351;51.422;6.794;2023-04-25T13:30:25;7.07;;;1.90;;
8626;SDS011;4351;51.422;6.794;2023-04-25T13:32:53;3.60;;;1.50;;
8626;SDS011;4351;51.422;6.794;2023-04-25T13:35:22;4.27;;;1.67;;
8626;SDS011;4351;51.422;6.794;2023-04-25T13:37:50;6.63;;;1.63;;
8626;SDS011;4351;51.422;6.794;2023-04-25T13:40:18;6.67;;;2.07;;
8626;SDS011;4351;51.422;6.794;2023-04-25T13:42:48;6.63;;;1.87;;
8626;SDS011;4351;51.422;6.794;2023-04-25T13:45:18;6.47;;;1.73;;
8626;SDS011;4351;51.422;6.794;2023-04-25T13:47:46;6.80;;;1.97;;
8626;SDS011;4351;51.422;6.794;2023-04-25T13:50:14;4.70;;;1.80;;
8626;SDS011;4351;51.422;6.794;2023-04-25T13:52:42;6.90;;;1.83;;
8626;SDS011;4351;51.422;6.794;2023-04-25T13:55:11;4.73;;;1.60;;
8626;SDS011;4351;51.422;6.794;2023-04-25T13:57:39;4.17;;;1.43;;
8626;SDS011;4351;51.422;6.794;2023-04-25T14:00:07;4.13;;;1.23;;
8626;SDS011;4351;51.422;6.794;2023-04-25T14:02:37;5.80;;;1.40;;
8626;SDS011;4351;51.422;6.794;2023-04-25T14:05:06;6.77;;;1.70;;
8626;SDS011;4351;51.422;6.794;2023-04-25T14:07:35;4.70;;;1.23;;
8626;SDS011;4351;51.422;6.794;2023-04-25T14:10:04;6.07;;;1.50;;
8626;SDS011;4351;51.422;6.794;2023-04-25T14:12:33;6.30;;;1.50;;
8626;SDS011;4351;51.422;6.794;2023-04-25T14:15:01;6.63;;;1.70;;
8626;SDS011;4351;51.422;6.794;2023-04-25T14:17:29;5.03;;;1.50;;
8626;SDS011;4351;51.422;6.794;2023-04-25T14:19:59;5.43;;;1.60;;
8626;SDS011;4351;51.422;6.794;2023-04-25T14:22:26;5.57;;;1.40;;
8626;SDS011;4351;51.422;6.794;2023-04-25T14:24:54;4.90;;;1.43;;
8626;SDS011;4351;51.422;6.794;2023-04-25T14:27:22;4.73;;;1.20;;
8626;SDS011;4351;51.422;6.794;2023-04-25T14:29:54;3.67;;;1.17;;
8626;SDS011;4351;51.422;6.794;2023-04-25T14:32:21;3.47;;;1.27;;
8626;SDS011;4351;51.422;6.794;2023-04-25T14:34:49;4.60;;;1.20;;
8626;SDS011;4351;51.422;6.794;2023-04-25T14:37:19;5.73;;;1.17;;
8626;SDS011;4351;51.422;6.794;2023-04-25T14:39:47;3.80;;;1.10;;
8626;SDS011;4351;51.422;6.794;2023-04-25T14:42:15;5.00;;;1.20;;
8626;SDS011;4351;51.422;6.794;2023-04-25T14:44:43;3.77;;;1.13;;
8626;SDS011;4351;51.422;6.794;2023-04-25T14:47:11;5.77;;;1.37;;
8626;SDS011;4351;51.422;6.794;2023-04-25T14:49:39;4.50;;;1.50;;
8626;SDS011;4351;51.422;6.794;2023-04-25T14:52:07;6.00;;;1.43;;
8626;SDS011;4351;51.422;6.794;2023-04-25T14:54:36;5.07;;;1.33;;
8626;SDS011;4351;51.422;6.794;2023-04-25T14:57:04;5.13;;;1.10;;
8626;SDS011;4351;51.422;6.794;2023-04-25T14:59:32;3.23;;;1.30;;
8626;SDS011;4351;51.422;6.794;2023-04-25T15:02:00;5.70;;;1.30;;
8626;SDS011;4351;51.422;6.794;2023-04-25T15:04:29;3.97;;;1.57;;
8626;SDS011;4351;51.422;6.794;2023-04-25T15:06:57;5.57;;;1.30;;
8626;SDS011;4351;51.422;6.794;2023-04-25T15:09:25;3.77;;;1.20;;
8626;SDS011;4351;51.422;6.794;2023-04-25T15:11:56;9.13;;;1.87;;
8626;SDS011;4351;51.422;6.794;2023-04-25T15:14:24;5.20;;;1.30;;
8626;SDS011;4351;51.422;6.794;2023-04-25T15:16:52;6.07;;;1.47;;
8626;SDS011;4351;51.422;6.794;2023-04-25T15:19:20;4.10;;;1.50;;
8626;SDS011;4351;51.422;6.794;2023-04-25T15:21:48;4.33;;;1.60;;
8626;SDS011;4351;51.422;6.794;2023-04-25T15:24:16;4.57;;;1.80;;
8626;SDS011;4351;51.422;6.794;2023-04-25T15:26:44;3.73;;;1.80;;
8626;SDS011;4351;51.422;6.794;2023-04-25T15:29:14;4.40;;;1.33;;
8626;SDS011;4351;51.422;6.794;2023-04-25T15:31:41;8.87;;;1.60;;
8626;SDS011;4351;51.422;6.794;2023-04-25T15:34:09;4.57;;;1.17;;
8626;SDS011;4351;51.422;6.794;2023-04-25T15:36:37;4.23;;;1.27;;